Time;durP1;ratioP1;P1;durP2;ratioP2;P2;SDS_P1;SDS_P2;PMS_P1;PMS_P2;Temp;Humidity;BMP_temperature;BMP_pressure;BME280_temperature;BME280_humidity;BME280_pressure;Samples;Min_cycle;Max_cycle;Signal;HPM_P1;HPM_P2
2022/12/01 00:01:47;;;;;;;29.45;17.55;;;;;;;5.59;100.00;101880.25;5013632;28;20145;-77
2022/12/01 00:04:18;;;;;;;31.50;16.98;;;;;;;5.63;100.00;101873.97;5013572;28;20128;-76
2022/12/01 00:06:44;;;;;;;34.55;19.00;;;;;;;5.59;100.00;101880.25;5014020;28;20067;-77
2022/12/01 00:11:55;;;;;;;37.90;18.85;;;;;;;5.63;100.00;101883.50;4993931;28;20436;-77
2022/12/01 00:14:22;;;;;;;31.67;17.75;;;;;;;5.63;100.00;101876.56;4993803;28;20097;-76
2022/12/01 00:16:52;;;;;;;36.60;19.10;;;;;;;5.62;100.00;101877.47;5007894;28;20521;-77
2022/12/01 00:19:20;;;;;;;37.45;18.70;;;;;;;5.58;100.00;101886.38;5012697;28;20054;-77
2022/12/01 00:21:46;;;;;;;31.58;19.33;;;;;;;5.64;100.00;101875.63;5013261;28;20132;-78
2022/12/01 00:24:13;;;;;;;39.92;18.83;;;;;;;5.65;100.00;101886.84;5013113;28;20125;-77
2022/12/01 00:26:40;;;;;;;38.50;18.65;;;;;;;5.62;100.00;101880.06;5013542;28;20413;-76
2022/12/01 00:29:06;;;;;;;34.47;19.30;;;;;;;5.60;100.00;101875.91;5013014;28;20110;-77
2022/12/01 00:31:33;;;;;;;34.25;18.52;;;;;;;5.60;100.00;101879.34;5012966;28;20109;-77
2022/12/01 00:34:00;;;;;;;32.42;18.65;;;;;;;5.63;100.00;101871.34;5012942;28;20141;-77
2022/12/01 00:36:30;;;;;;;33.25;18.48;;;;;;;5.66;100.00;101876.38;5013353;28;20145;-77
2022/12/01 00:38:57;;;;;;;33.30;19.38;;;;;;;5.68;100.00;101882.28;5012604;28;20042;-77
2022/12/01 00:41:26;;;;;;;32.17;18.58;;;;;;;5.66;100.00;101881.56;5013237;28;20104;-76
2022/12/01 00:43:56;;;;;;;36.15;19.90;;;;;;;5.64;100.00;101874.78;5012680;28;20125;-79
2022/12/01 00:46:22;;;;;;;31.08;18.30;;;;;;;5.63;100.00;101875.72;5003234;28;20053;-77
2022/12/01 00:48:49;;;;;;;37.15;19.40;;;;;;;5.63;100.00;101883.50;5012324;28;20584;-77
2022/12/01 00:51:16;;;;;;;38.63;20.00;;;;;;;5.60;100.00;101879.34;5012922;28;20129;-77
2022/12/01 00:53:44;;;;;;;32.47;18.25;;;;;;;5.59;100.00;101882.84;5012456;28;20058;-76
2022/12/01 00:56:11;;;;;;;38.78;20.65;;;;;;;5.66;100.00;101884.16;5012718;28;20065;-79
2022/12/01 00:58:38;;;;;;;40.47;20.90;;;;;;;5.67;100.00;101880.59;5012340;28;20580;-78
2022/12/01 01:01:04;;;;;;;40.00;19.73;;;;;;;5.61;100.00;101882.75;5013105;28;20527;-77
2022/12/01 01:03:33;;;;;;;36.05;19.70;;;;;;;5.61;100.00;101881.00;5013602;28;20118;-78
2022/12/01 01:06:04;;;;;;;40.28;19.85;;;;;;;5.64;100.00;101886.00;5026396;28;20136;-77
2022/12/01 01:08:31;;;;;;;40.88;21.00;;;;;;;5.66;100.00;101888.50;5031460;28;20542;-78
2022/12/01 01:11:01;;;;;;;39.38;20.27;;;;;;;5.62;100.00;101884.44;5013585;28;20132;-76
2022/12/01 01:13:28;;;;;;;41.55;21.98;;;;;;;5.62;100.00;101887.88;5012029;28;20056;-77
2022/12/01 01:15:59;;;;;;;41.38;21.98;;;;;;;5.63;100.00;101894.72;5012048;28;20046;-77
2022/12/01 01:18:26;;;;;;;44.70;21.30;;;;;;;5.63;100.00;101893.91;5011419;28;20062;-76
2022/12/01 01:20:56;;;;;;;42.85;22.02;;;;;;;5.59;100.00;101898.44;5012143;28;20137;-77
2022/12/01 01:23:23;;;;;;;50.28;23.67;;;;;;;5.54;100.00;101892.69;5012098;28;20102;-77
2022/12/01 01:25:49;;;;;;;51.22;23.90;;;;;;;5.55;100.00;101891.75;5011721;28;20081;-78
2022/12/01 01:28:18;;;;;;;54.65;25.17;;;;;;;5.55;100.00;101893.53;5011561;28;20138;-78
2022/12/01 01:30:45;;;;;;;50.47;23.45;;;;;;;5.54;100.00;101895.28;5011641;28;20148;-77
2022/12/01 01:33:12;;;;;;;50.03;23.98;;;;;;;5.55;100.00;101901.31;5011925;28;20128;-79
2022/12/01 01:35:39;;;;;;;51.05;24.50;;;;;;;5.54;100.00;101894.44;5012143;28;20160;-76
2022/12/01 01:38:05;;;;;;;53.45;23.60;;;;;;;5.59;100.00;101906.22;5011353;28;20184;-75
2022/12/01 01:40:41;;;;;;;52.88;23.83;;;;;;;5.57;100.00;101891.66;5011658;28;20073;-77
2022/12/01 01:43:14;;;;;;;54.80;26.35;;;;;;;5.62;100.00;101898.25;5011881;28;20487;-76
2022/12/01 01:45:42;;;;;;;;;;;;;;;5.60;100.00;101912.25;5012070;28;20103;-76
2022/12/01 01:48:13;;;;;;;54.20;25.08;;;;;;;5.60;100.00;101920.03;5011206;28;20238;-76
2022/12/01 01:50:40;;;;;;;51.47;26.05;;;;;;;5.57;100.00;101909.84;5011447;28;20064;-76
2022/12/01 01:53:13;;;;;;;50.92;24.23;;;;;;;5.59;100.00;101911.41;5011266;28;20137;-76
2022/12/01 01:55:39;;;;;;;58.33;27.08;;;;;;;5.51;100.00;101905.00;5011915;28;20099;-73
2022/12/01 01:58:10;;;;;;;50.55;25.25;;;;;;;5.62;100.00;101915.59;5010299;28;20050;-75
2022/12/01 02:00:39;;;;;;;58.45;24.55;;;;;;;5.64;100.00;101914.56;5008913;28;20064;-77
2022/12/01 02:05:37;;;;;;;57.90;25.10;;;;;;;5.54;100.00;101908.25;4997230;28;20043;-80
2022/12/01 02:08:04;;;;;;;56.78;25.42;;;;;;;5.53;100.00;101905.75;4984746;28;20082;-81
2022/12/01 02:10:45;;;;;;;55.17;26.35;;;;;;;5.60;100.00;101910.50;4999648;28;20114;-81
2022/12/01 02:13:24;;;;;;;55.38;26.05;;;;;;;5.59;100.00;101913.19;4999300;28;20141;-81
2022/12/01 02:16:03;;;;;;;57.17;25.13;;;;;;;5.60;100.00;101907.06;4998404;28;20115;-81
2022/12/01 02:18:37;;;;;;;52.65;24.88;;;;;;;5.55;100.00;101902.16;4998211;28;20054;-80
2022/12/01 02:21:31;;;;;;;51.00;24.67;;;;;;;5.58;100.00;101907.16;4998618;28;20125;-80
2022/12/01 02:24:36;;;;;;;59.38;25.58;;;;;;;5.57;100.00;101905.47;4998007;28;20069;-79
2022/12/01 02:27:08;;;;;;;51.30;24.75;;;;;;;5.54;100.00;101913.47;4998114;28;20089;-81
2022/12/01 02:30:07;;;;;;;51.17;24.90;;;;;;;5.54;100.00;101900.47;4997763;28;20157;-81
2022/12/01 02:32:49;;;;;;;54.80;23.83;;;;;;;5.49;100.00;101907.69;4978236;28;20333;-81
2022/12/01 02:35:23;;;;;;;52.72;25.42;;;;;;;5.48;100.00;101900.00;4994618;28;20132;-81
2022/12/01 02:38:00;;;;;;;59.97;25.55;;;;;;;5.49;100.00;101892.13;4998895;28;20145;-79
2022/12/01 02:40:30;;;;;;;56.00;25.52;;;;;;;5.55;100.00;101904.75;4999837;28;20082;-82
2022/12/01 02:43:03;;;;;;;56.67;26.63;;;;;;;5.47;100.00;101909.56;4998776;28;20106;-81
2022/12/01 02:45:37;;;;;;;48.78;24.65;;;;;;;5.53;100.00;101906.59;4998657;28;20050;-82
2022/12/01 02:48:11;;;;;;;53.47;26.67;;;;;;;5.53;100.00;101906.59;4998586;28;20078;-80
2022/12/01 02:50:39;;;;;;;62.83;27.15;;;;;;;5.49;100.00;101892.13;4999260;28;20082;-81
2022/12/01 02:53:09;;;;;;;60.55;26.83;;;;;;;5.48;100.00;101900.00;4999410;28;20106;-81
2022/12/01 02:55:35;;;;;;;56.58;24.98;;;;;;;5.45;100.00;101898.44;4998746;28;20061;-83
2022/12/01 02:58:02;;;;;;;60.08;26.13;;;;;;;5.48;100.00;101898.25;4998792;28;20054;-82
2022/12/01 03:00:30;;;;;;;53.58;25.52;;;;;;;5.45;100.00;101902.78;4998959;28;20612;-82
2022/12/01 03:03:25;;;;;;;50.97;24.75;;;;;;;5.43;100.00;101900.28;4999195;28;20106;-80
2022/12/01 03:06:00;;;;;;;50.50;24.00;;;;;;;5.43;100.00;101905.47;4998717;28;20050;-81
2022/12/01 03:08:34;;;;;;;54.25;24.23;;;;;;;5.44;100.00;101901.94;4998330;28;20050;-81
2022/12/01 03:11:02;;;;;;;53.08;24.25;;;;;;;5.47;100.00;101909.56;5001065;28;20134;-82
2022/12/01 03:13:38;;;;;;;54.28;24.63;;;;;;;5.40;100.00;101903.06;5001632;28;20153;-83
2022/12/01 03:16:11;;;;;;;57.00;24.30;;;;;;;5.42;100.00;101906.41;5001815;28;20061;-81
2022/12/01 03:18:43;;;;;;;58.50;25.98;;;;;;;5.45;100.00;101908.81;5001440;28;20078;-81
2022/12/01 03:21:12;;;;;;;52.53;24.02;;;;;;;5.41;100.00;101909.91;5002091;28;20097;-81
2022/12/01 03:23:42;;;;;;;58.13;24.65;;;;;;;5.44;100.00;101908.91;5001649;28;20194;-82
2022/12/01 03:26:17;;;;;;;52.45;24.15;;;;;;;5.47;100.00;101898.34;5001424;28;20105;-83
2022/12/01 03:28:50;;;;;;;59.35;25.27;;;;;;;5.49;100.00;101914.66;5000327;28;20057;-81
2022/12/01 03:31:20;;;;;;;57.53;24.85;;;;;;;5.44;100.00;101912.34;5000817;28;20078;-82
2022/12/01 03:33:54;;;;;;;59.40;26.52;;;;;;;5.37;100.00;101905.84;5000161;28;20120;-81
2022/12/01 03:36:25;;;;;;;60.83;26.40;;;;;;;5.37;100.00;101912.78;5000904;28;20081;-82
2022/12/01 03:38:58;;;;;;;69.55;29.67;;;;;;;5.38;100.00;101914.44;5002565;28;20088;-81
2022/12/01 03:41:28;;;;;;;62.78;27.30;;;;;;;5.37;100.00;101900.63;5001098;28;20069;-82
2022/12/01 03:44:01;;;;;;;66.60;27.77;;;;;;;5.40;100.00;101897.03;5001955;28;20105;-82
2022/12/01 03:46:39;;;;;;;64.15;27.52;;;;;;;5.34;100.00;101899.06;5000771;28;20073;-83
2022/12/01 03:49:08;;;;;;;75.35;28.17;;;;;;;5.36;100.00;101906.75;5000463;28;20055;-82
2022/12/01 03:51:43;;;;;;;69.50;27.67;;;;;;;5.42;100.00;101908.16;5001107;28;20226;-81
2022/12/01 03:54:16;;;;;;;76.28;30.92;;;;;;;5.39;100.00;101905.75;4997737;28;20050;-81
2022/12/01 03:56:48;;;;;;;75.25;29.20;;;;;;;5.40;100.00;101908.25;4997751;28;20141;-82
2022/12/01 03:59:17;;;;;;;78.22;30.23;;;;;;;5.43;100.00;101908.06;5002550;28;20136;-82
2022/12/01 04:01:45;;;;;;;73.78;29.05;;;;;;;5.36;100.00;101914.53;5001523;28;20129;-81
2022/12/01 04:04:14;;;;;;;76.45;31.08;;;;;;;5.36;100.00;101911.94;5001482;28;20070;-82
2022/12/01 04:06:44;;;;;;;77.55;29.13;;;;;;;5.40;100.00;101918.63;5019957;28;20081;-82
2022/12/01 04:09:11;;;;;;;83.72;31.63;;;;;;;5.41;100.00;101922.06;5012730;28;20050;-82
2022/12/01 04:14:28;;;;;;;86.22;31.98;;;;;;;5.39;100.00;101916.97;4982654;28;20042;-82
2022/12/01 04:16:54;;;;;;;77.03;30.10;;;;;;;5.39;100.00;101910.94;5001819;28;20136;-81
2022/12/01 04:19:22;;;;;;;78.72;31.25;;;;;;;5.37;100.00;101913.63;5001940;28;20532;-82
2022/12/01 04:21:49;;;;;;;77.65;31.25;;;;;;;5.39;100.00;101906.56;5000873;28;20050;-82
2022/12/01 04:24:16;;;;;;;88.20;33.17;;;;;;;5.40;100.00;101916.03;5001287;28;20057;-82
2022/12/01 04:26:44;;;;;;;82.18;31.70;;;;;;;5.44;100.00;101925.31;5001795;28;20137;-83
2022/12/01 04:29:12;;;;;;;78.47;30.35;;;;;;;5.38;100.00;101912.69;5000753;28;20509;-82
2022/12/01 04:31:39;;;;;;;77.97;32.33;;;;;;;5.45;100.00;101918.34;5001142;28;20092;-80
2022/12/01 04:34:06;;;;;;;79.93;31.20;;;;;;;5.40;100.00;101913.44;5000861;28;20102;-81
2022/12/01 04:36:35;;;;;;;85.95;31.80;;;;;;;5.41;100.00;101924.66;5001361;28;20133;-82
2022/12/01 04:39:02;;;;;;;87.97;32.85;;;;;;;5.34;100.00;101911.19;5000602;28;20532;-81
2022/12/01 04:41:29;;;;;;;82.05;32.33;;;;;;;5.34;100.00;101917.22;5000821;28;20046;-82
2022/12/01 04:43:56;;;;;;;79.70;30.45;;;;;;;5.38;100.00;101909.25;5000635;28;20078;-82
2022/12/01 04:46:23;;;;;;;81.38;31.33;;;;;;;5.35;100.00;101920.66;5000767;28;20089;-82
2022/12/01 04:48:51;;;;;;;79.57;32.30;;;;;;;5.38;100.00;101904.06;5001348;28;20129;-82
2022/12/01 04:51:18;;;;;;;69.00;29.60;;;;;;;5.35;100.00;101910.28;5002545;28;20477;-82
2022/12/01 04:53:46;;;;;;;86.82;31.35;;;;;;;5.31;100.00;101903.59;5001902;28;20416;-82
2022/12/01 04:56:15;;;;;;;80.57;31.40;;;;;;;5.37;100.00;101916.22;5001929;28;20069;-80
2022/12/01 04:58:42;;;;;;;80.70;32.15;;;;;;;5.41;100.00;101920.31;5002239;28;20057;-82
2022/12/01 05:01:12;;;;;;;84.82;32.80;;;;;;;5.34;100.00;101919.00;5001311;28;20529;-80
2022/12/01 05:03:39;;;;;;;89.13;34.53;;;;;;;5.28;100.00;101914.16;5002967;28;20114;-82
2022/12/01 05:06:09;;;;;;;80.95;32.22;;;;;;;5.31;100.00;101911.38;5012331;28;20055;-81
2022/12/01 05:08:36;;;;;;;87.95;32.78;;;;;;;5.31;100.00;101920.00;5005279;28;20109;-83
2022/12/01 05:11:06;;;;;;;83.55;33.00;;;;;;;5.20;100.00;101914.59;5003403;28;20078;-78
2022/12/01 05:13:33;;;;;;;83.97;36.05;;;;;;;5.25;100.00;101911.75;5002786;28;20054;-78
2022/12/01 05:16:06;;;;;;;84.82;34.63;;;;;;;5.26;100.00;101931.56;5001412;28;20112;-79
2022/12/01 05:18:32;;;;;;;93.32;36.75;;;;;;;5.25;100.00;101922.13;4998823;28;20074;-81
2022/12/01 05:20:58;;;;;;;87.53;33.60;;;;;;;5.22;100.00;101917.94;4999786;28;20142;-78
2022/12/01 05:23:25;;;;;;;82.70;32.72;;;;;;;5.30;100.00;101920.94;4999712;28;20146;-80
2022/12/01 05:25:52;;;;;;;86.53;34.10;;;;;;;5.23;100.00;101923.97;4999453;28;20072;-79
2022/12/01 05:28:21;;;;;;;87.95;35.95;;;;;;;5.26;100.00;101924.63;4997344;28;20292;-80
2022/12/01 05:30:49;;;;;;;91.70;34.78;;;;;;;5.26;100.00;101916.00;4998771;28;20073;-80
2022/12/01 05:33:15;;;;;;;83.18;34.25;;;;;;;5.27;100.00;101910.72;5000376;28;20085;-81
2022/12/01 05:35:42;;;;;;;74.13;31.58;;;;;;;5.30;100.00;101907.13;5001042;28;20066;-82
2022/12/01 05:38:09;;;;;;;79.43;33.30;;;;;;;5.29;100.00;101908.03;5000350;28;20089;-84
2022/12/01 05:40:36;;;;;;;80.57;32.13;;;;;;;5.31;100.00;101903.59;5000426;28;20097;-79
2022/12/01 05:43:03;;;;;;;69.95;30.38;;;;;;;5.31;100.00;101913.97;4999419;28;20082;-79
2022/12/01 05:45:31;;;;;;;67.75;29.42;;;;;;;5.37;100.00;101903.25;4999500;28;20070;-83
2022/12/01 05:47:59;;;;;;;73.15;30.00;;;;;;;5.33;100.00;101902.59;5000941;28;20054;-83
2022/12/01 05:50:27;;;;;;;71.47;29.95;;;;;;;5.38;100.00;101898.88;5000091;28;20062;-80
2022/12/01 05:52:54;;;;;;;69.97;29.38;;;;;;;5.44;100.00;101899.34;4999607;28;20097;-82
2022/12/01 05:55:21;;;;;;;65.05;30.33;;;;;;;5.41;100.00;101901.28;4999683;28;20085;-82
2022/12/01 05:57:47;;;;;;;63.58;26.55;;;;;;;5.39;100.00;101895.34;5000679;28;20085;-81
2022/12/01 06:00:15;;;;;;;59.17;27.88;;;;;;;5.35;100.00;101902.50;5001329;28;20086;-82
2022/12/01 06:02:44;;;;;;;61.65;27.25;;;;;;;5.41;100.00;101898.69;5000809;28;20046;-79
2022/12/01 06:05:11;;;;;;;58.72;26.67;;;;;;;5.41;100.00;101890.91;5005433;28;20084;-79
2022/12/01 06:07:39;;;;;;;62.42;29.17;;;;;;;5.42;100.00;101909.00;5020732;28;20455;-80
2022/12/01 06:10:06;;;;;;;53.55;26.13;;;;;;;5.39;100.00;101900.56;5002717;28;20493;-79
2022/12/01 06:12:33;;;;;;;61.15;27.95;;;;;;;5.19;100.00;101873.22;5002365;28;20050;-84
2022/12/01 06:15:00;;;;;;;56.90;26.88;;;;;;;5.37;100.00;101907.59;5003867;28;20058;-81
2022/12/01 06:17:26;;;;;;;55.70;26.25;;;;;;;5.36;100.00;101904.16;5008045;28;20050;-80
2022/12/01 06:20:13;;;;;;;55.92;26.92;;;;;;;5.30;100.00;101887.19;5000988;28;20077;-80
2022/12/01 06:22:48;;;;;;;62.28;26.63;;;;;;;5.39;100.00;101909.16;4999504;28;20077;-81
2022/12/01 06:25:17;;;;;;;51.28;24.45;;;;;;;5.19;100.00;101883.59;4998044;28;20093;-81
2022/12/01 06:27:45;;;;;;;51.10;24.65;;;;;;;5.18;100.00;101887.09;4998458;28;20062;-82
2022/12/01 06:30:13;;;;;;;60.97;24.98;;;;;;;5.23;100.00;101901.44;4998173;28;20050;-82
2022/12/01 06:32:42;;;;;;;56.22;25.38;;;;;;;5.36;100.00;101917.13;5003178;28;20057;-81
2022/12/01 06:35:28;;;;;;;49.97;24.40;;;;;;;5.25;100.00;101904.78;5002603;28;20058;-81
2022/12/01 06:38:11;;;;;;;57.35;26.85;;;;;;;5.37;100.00;101908.44;5000953;28;20054;-81
2022/12/01 06:40:38;;;;;;;48.08;23.17;;;;;;;5.32;100.00;101916.47;4998230;28;20065;-79
2022/12/01 06:43:05;;;;;;;50.67;23.23;;;;;;;5.19;100.00;101907.78;4996610;28;20053;-79
2022/12/01 06:45:35;;;;;;;50.00;23.88;;;;;;;5.28;100.00;101925.38;4995725;28;20100;-80
2022/12/01 06:48:01;;;;;;;52.10;24.05;;;;;;;5.25;100.00;101919.53;4995078;28;20054;-79
2022/12/01 06:50:29;;;;;;;45.92;23.02;;;;;;;5.26;100.00;101914.25;4995258;28;20054;-79
2022/12/01 06:52:56;;;;;;;50.30;24.20;;;;;;;5.24;100.00;101920.44;4994454;28;20050;-79
2022/12/01 06:55:24;;;;;;;54.90;25.00;;;;;;;5.24;100.00;101928.22;4998522;28;20056;-79
2022/12/01 06:57:50;;;;;;;50.63;24.38;;;;;;;5.26;100.00;101921.19;4998342;28;20405;-78
2022/12/01 07:00:17;;;;;;;47.00;25.60;;;;;;;5.29;100.00;101932.22;4996112;28;20141;-80
2022/12/01 07:02:44;;;;;;;46.35;25.17;;;;;;;5.28;100.00;101930.56;4993684;28;20149;-78
2022/12/01 07:05:11;;;;;;;51.17;23.98;;;;;;;5.28;100.00;101927.13;4977873;28;20082;-80
2022/12/01 07:07:39;;;;;;;49.72;24.55;;;;;;;5.28;100.00;101929.72;4976621;28;20142;-79
2022/12/01 07:10:07;;;;;;;52.63;24.83;;;;;;;5.28;100.00;101927.13;4993836;28;20299;-79
2022/12/01 07:12:34;;;;;;;47.67;24.30;;;;;;;5.31;100.00;101932.97;4998793;28;20093;-81
2022/12/01 07:15:01;;;;;;;45.83;24.98;;;;;;;5.36;100.00;101931.88;4997798;28;20089;-79
2022/12/01 07:17:31;;;;;;;48.50;23.73;;;;;;;5.32;100.00;101932.06;4997514;28;20421;-80
2022/12/01 07:19:59;;;;;;;46.75;24.75;;;;;;;5.36;100.00;101932.72;4997579;28;20058;-80
2022/12/01 07:22:26;;;;;;;48.72;24.35;;;;;;;5.36;100.00;101927.53;4997557;28;20548;-79
2022/12/01 07:24:56;;;;;;;45.10;24.50;;;;;;;5.39;100.00;101934.28;4995718;28;20133;-80
2022/12/01 07:27:22;;;;;;;47.72;23.58;;;;;;;5.41;100.00;101941.06;4979327;28;20051;-79
2022/12/01 07:29:49;;;;;;;46.83;23.42;;;;;;;5.35;100.00;101938.84;4979944;28;20125;-81
2022/12/01 07:32:18;;;;;;;44.83;23.23;;;;;;;5.35;100.00;101946.63;4980390;28;20086;-81
2022/12/01 07:34:45;;;;;;;49.33;24.15;;;;;;;5.35;100.00;101946.63;4981603;28;20082;-80
2022/12/01 07:37:12;;;;;;;52.03;25.02;;;;;;;5.35;100.00;101944.03;4980947;28;20110;-81
2022/12/01 07:39:39;;;;;;;46.28;24.10;;;;;;;5.38;100.00;101943.84;4983261;28;20078;-80
2022/12/01 07:42:07;;;;;;;45.65;23.95;;;;;;;5.37;100.00;101946.53;4979529;28;20078;-82
2022/12/01 07:44:33;;;;;;;46.78;24.67;;;;;;;5.39;100.00;101945.50;4978491;28;20051;-82
2022/12/01 07:47:00;;;;;;;53.00;24.73;;;;;;;5.34;100.00;101944.94;4978562;28;20059;-82
2022/12/01 07:49:27;;;;;;;53.05;25.48;;;;;;;5.35;100.00;101946.63;4977918;28;20508;-81
2022/12/01 07:51:53;;;;;;;48.00;26.48;;;;;;;5.32;100.00;101942.44;4977824;28;20106;-79
2022/12/01 07:54:20;;;;;;;50.28;25.27;;;;;;;5.34;100.00;101934.56;4978630;28;20066;-82
2022/12/01 07:56:47;;;;;;;54.63;26.60;;;;;;;5.44;100.00;101946.06;4982968;28;20105;-82
2022/12/01 07:59:15;;;;;;;55.72;25.67;;;;;;;5.43;100.00;101946.16;4982823;28;20137;-82
2022/12/01 08:01:42;;;;;;;46.60;23.77;;;;;;;5.48;100.00;101947.56;4982259;28;20126;-83
2022/12/01 08:04:09;;;;;;;51.30;24.55;;;;;;;5.48;100.00;101949.31;5003198;23;20051;-78
2022/12/01 08:06:35;;;;;;;59.28;26.55;;;;;;;5.43;100.00;101947.00;4977060;28;20050;-82
2022/12/01 08:09:02;;;;;;;54.65;25.67;;;;;;;5.37;100.00;101949.97;4981083;28;20565;-80
2022/12/01 08:11:30;;;;;;;51.70;24.65;;;;;;;5.39;100.00;101950.69;4980252;28;20133;-81
2022/12/01 08:13:57;;;;;;;53.42;26.10;;;;;;;5.43;100.00;101953.97;4979691;28;20086;-81
2022/12/01 08:16:25;;;;;;;51.88;25.30;;;;;;;5.38;100.00;101941.25;4979915;28;20085;-81
2022/12/01 08:18:52;;;;;;;57.28;26.13;;;;;;;5.37;100.00;101951.72;4979607;28;20054;-81
2022/12/01 08:21:21;;;;;;;64.78;27.70;;;;;;;5.40;100.00;101949.78;4980129;28;20137;-81
2022/12/01 08:23:48;;;;;;;56.22;26.90;;;;;;;5.30;100.00;101959.03;4979882;28;20090;-81
2022/12/01 08:26:17;;;;;;;59.67;27.40;;;;;;;5.31;100.00;101965.88;4979266;28;20568;-81
2022/12/01 08:28:44;;;;;;;49.20;24.15;;;;;;;5.33;100.00;101974.41;4978285;28;20094;-80
2022/12/01 08:31:14;;;;;;;48.17;25.58;;;;;;;5.36;100.00;101973.41;4979359;28;20137;-81
2022/12/01 08:33:42;;;;;;;53.95;25.80;;;;;;;5.28;100.00;101963.47;4980564;28;20082;-81
2022/12/01 08:36:09;;;;;;;53.92;25.58;;;;;;;5.24;100.00;101970.59;4980252;28;20450;-81
2022/12/01 08:38:36;;;;;;;55.85;25.92;;;;;;;5.36;100.00;101979.44;4977757;28;20055;-82
2022/12/01 08:41:04;;;;;;;54.97;26.38;;;;;;;5.34;100.00;101970.91;4979245;28;20167;-81
2022/12/01 08:43:30;;;;;;;52.90;25.13;;;;;;;5.36;100.00;101979.44;4979904;28;20134;-80
2022/12/01 08:45:59;;;;;;;54.67;26.58;;;;;;;5.40;100.00;101986.13;4978638;28;20078;-80
2022/12/01 08:48:28;;;;;;;50.88;26.55;;;;;;;5.40;100.00;101978.34;4978892;28;20054;-82
2022/12/01 08:51:03;;;;;;;53.60;25.30;;;;;;;5.43;100.00;101979.91;4979435;28;20051;-82
2022/12/01 08:53:29;;;;;;;46.90;23.15;;;;;;;5.41;100.00;101976.56;4979870;28;20090;-81
2022/12/01 08:55:59;;;;;;;48.78;23.73;;;;;;;5.37;100.00;101980.28;4978800;28;20141;-81
2022/12/01 08:58:26;;;;;;;49.75;23.92;;;;;;;5.41;100.00;101977.41;4978462;28;20058;-81
2022/12/01 09:00:52;;;;;;;49.17;24.02;;;;;;;5.40;100.00;101970.53;4979408;28;20074;-82
2022/12/01 09:03:19;;;;;;;51.60;24.58;;;;;;;5.44;100.00;101981.59;4979707;28;20078;-82
2022/12/01 09:05:45;;;;;;;48.28;23.13;;;;;;;5.41;100.00;101984.34;4977551;28;20155;-80
2022/12/01 09:08:31;;;;;;;51.92;24.48;;;;;;;5.43;100.00;101980.75;4976169;28;20470;-79
2022/12/01 09:10:58;;;;;;;54.40;24.65;;;;;;;5.53;100.00;101975.84;4975999;28;20417;-78
2022/12/01 09:13:26;;;;;;;51.40;22.70;;;;;;;5.46;100.00;101996.16;4978368;28;20572;-82
2022/12/01 09:15:58;;;;;;;46.42;24.50;;;;;;;5.45;100.00;101983.25;4978656;28;20047;-81
2022/12/01 09:18:25;;;;;;;47.90;23.80;;;;;;;5.50;100.00;101992.44;4978430;28;20459;-82
2022/12/01 09:20:51;;;;;;;48.90;24.38;;;;;;;5.57;100.00;101983.38;4979518;28;20094;-82
2022/12/01 09:23:20;;;;;;;54.33;23.15;;;;;;;5.51;100.00;101993.28;4983354;28;20089;-81
2022/12/01 09:25:47;;;;;;;51.30;23.70;;;;;;;5.47;100.00;101984.84;4979645;28;20094;-81
2022/12/01 09:28:14;;;;;;;47.60;22.27;;;;;;;5.45;100.00;101991.88;4979835;28;20082;-80
2022/12/01 09:30:41;;;;;;;47.58;21.67;;;;;;;5.46;100.00;101990.97;4983612;28;20518;-82
2022/12/01 09:33:07;;;;;;;42.78;21.45;;;;;;;5.46;100.00;101990.97;4978656;28;20439;-81
2022/12/01 09:35:34;;;;;;;46.53;22.20;;;;;;;5.53;100.00;101986.25;4977888;28;20085;-81
2022/12/01 09:38:00;;;;;;;42.03;22.08;;;;;;;5.53;100.00;101992.28;4978206;28;20407;-80
2022/12/01 09:40:34;;;;;;;45.03;21.48;;;;;;;5.54;100.00;101993.94;4983964;28;20051;-80
2022/12/01 09:43:04;;;;;;;42.13;21.60;;;;;;;5.48;100.00;101988.28;4978277;28;20418;-80
2022/12/01 09:45:35;;;;;;;48.67;23.02;;;;;;;5.43;100.00;102000.69;4978341;28;20541;-79
2022/12/01 09:48:05;;;;;;;53.17;23.77;;;;;;;5.45;100.00;102004.03;4977050;28;20078;-81
2022/12/01 09:50:32;;;;;;;50.10;25.35;;;;;;;5.42;100.00;101992.06;4974731;28;20057;-80
2022/12/01 09:53:02;;;;;;;45.60;23.02;;;;;;;5.40;100.00;101996.50;4975920;28;20604;-80
2022/12/01 09:55:32;;;;;;;53.72;23.52;;;;;;;5.41;100.00;101987.78;4975181;28;20043;-80
2022/12/01 09:58:02;;;;;;;54.28;23.75;;;;;;;5.47;100.00;101995.22;4973623;28;20089;-79
2022/12/01 10:00:31;;;;;;;48.53;22.70;;;;;;;5.44;100.00;101982.41;4973342;28;20482;-80
2022/12/01 10:03:07;;;;;;;47.97;23.08;;;;;;;5.52;100.00;101993.19;4974661;28;20101;-80
2022/12/01 10:05:41;;;;;;;48.78;22.70;;;;;;;5.54;100.00;101980.97;4985606;28;20066;-80
2022/12/01 10:08:13;;;;;;;50.80;21.55;;;;;;;5.53;100.00;101970.66;4979736;28;20488;-80
2022/12/01 10:10:44;;;;;;;52.50;22.85;;;;;;;5.66;100.00;101987.19;4982233;28;20051;-80
2022/12/01 10:13:17;;;;;;;48.75;23.08;;;;;;;5.71;100.00;101976.50;4978321;28;20410;-79
2022/12/01 10:15:51;;;;;;;45.35;22.13;;;;;;;5.72;100.00;101981.59;4979835;28;20106;-77
2022/12/01 10:18:37;;;;;;;44.15;21.65;;;;;;;5.71;100.00;101984.28;4995432;28;20100;-79
2022/12/01 10:21:12;;;;;;;51.30;22.52;;;;;;;5.77;100.00;101984.78;4983895;28;20117;-79
2022/12/01 10:23:56;;;;;;;53.33;23.33;;;;;;;5.85;100.00;101968.72;4977050;28;20097;-79
2022/12/01 10:26:31;;;;;;;57.10;24.00;;;;;;;5.99;100.00;101979.16;4975745;28;20490;-78
2022/12/01 10:29:13;;;;;;;49.70;22.75;;;;;;;5.81;100.00;101965.47;4976122;28;20054;-79
2022/12/01 10:31:51;;;;;;;46.03;22.10;;;;;;;5.78;100.00;101970.03;4974863;28;20137;-79
2022/12/01 10:34:22;;;;;;;47.72;22.02;;;;;;;5.75;100.00;101965.84;4994536;28;20046;-78
2022/12/01 10:36:49;;;;;;;51.75;22.75;;;;;;;5.80;100.00;101958.59;4994272;28;20485;-79
2022/12/01 10:39:20;;;;;;;48.55;21.58;;;;;;;5.85;100.00;101960.94;4992975;28;20065;-79
2022/12/01 10:41:49;;;;;;;43.80;22.10;;;;;;;5.95;100.00;101954.28;4985806;28;20050;-79
2022/12/01 10:44:18;;;;;;;41.22;21.80;;;;;;;5.95;100.00;101951.69;4977405;28;20078;-79
2022/12/01 10:46:47;;;;;;;37.42;18.92;;;;;;;5.98;100.00;101959.28;4978861;28;20075;-79
2022/12/01 10:49:15;;;;;;;36.80;19.23;;;;;;;5.93;100.00;101963.94;4979821;28;20195;-79
2022/12/01 10:51:51;;;;;;;37.72;19.60;;;;;;;5.95;100.00;101952.53;4987562;28;20058;-78
2022/12/01 10:54:19;;;;;;;38.15;18.98;;;;;;;5.95;100.00;101952.53;4981852;28;20097;-79
2022/12/01 10:56:51;;;;;;;34.90;19.10;;;;;;;6.06;100.00;101951.03;4980977;28;20594;-79
2022/12/01 10:59:31;;;;;;;39.33;19.00;;;;;;;6.04;100.00;101947.69;4976480;28;20051;-80
2022/12/01 11:01:59;;;;;;;42.90;21.10;;;;;;;5.98;100.00;101952.34;4976954;28;20086;-80
2022/12/01 11:04:43;;;;;;;42.17;20.15;;;;;;;6.02;100.00;101958.19;4977321;28;20054;-79
2022/12/01 11:07:17;;;;;;;38.50;19.77;;;;;;;6.00;100.00;101957.44;4976966;28;20502;-81
2022/12/01 11:09:46;;;;;;;40.47;19.83;;;;;;;5.97;100.00;101942.03;4976551;28;20054;-78
2022/12/01 11:12:19;;;;;;;39.05;20.65;;;;;;;5.93;100.00;101943.16;4976854;28;20473;-79
2022/12/01 11:14:47;;;;;;;;;;;;;;;6.00;100.00;101952.25;4975972;28;20147;-79
2022/12/01 11:17:38;;;;;;;42.28;19.70;;;;;;;6.01;100.00;101946.13;4976377;28;20363;-78
2022/12/01 11:20:32;;;;;;;42.17;19.75;;;;;;;5.89;100.00;101936.47;4974319;28;20082;-80
2022/12/01 11:23:23;;;;;;;37.60;20.70;;;;;;;5.81;100.00;101941.25;4974177;28;20055;-81
2022/12/01 11:26:01;;;;;;;33.40;18.05;;;;;;;5.76;100.00;101940.72;4968646;28;20105;-80
2022/12/01 11:28:31;;;;;;;36.70;19.35;;;;;;;5.80;100.00;101934.41;4974914;28;20114;-80
2022/12/01 11:31:00;;;;;;;34.03;18.55;;;;;;;5.77;100.00;101940.63;4977323;28;20166;-80